Mc Queeney, Texas
Current Conditions -  °F | °C
As of 2:51 AM on Wednesday 26 Nov 2014 (Local Time) from KBAZ Reporting Station
Clear Clear  
Wind Chill: 34°   Ceiling: Unl
Heat Index: 40°   Visibility: 10mi
Dew Point: 33°   Wind: 9mph
Humidity: 77%   Direction: 200°SSW
Pressure: 30.18"   Gusts: NA
Location:  29.6006°N, 98.0277°W
Report Text: KBAZ 260851Z AUTO 20008KT 10SM CLR 04/01 A3018 RMK AO2 SLP218 T00440006 55009
Loading
Personal Weather Stations






























Interactive Weather Map New forecast layout! Learn more

10-Day Weather Forecast

Advertisements
Track Severe Weather on mobile